Portada
METAR-TAF:

METAR-TAF

Aeroports :

Vardø, Noruega

latitud: 70-21N, longitud: 031-03E, altitud: 12 m

Observació

L'informe es va fer fa 8 hores i 57 minuts, a les 19:50 UTC
Vent 12 kt del Sud/Sud-Est
Temperatura 2°C
Humitat 87%
Pressió 1003 hPa
Visibilitat 10 km o més
Núvols disperses a una alçada de 1100 ft
Cel ennuvolat a una alçada de 2500 ft

METAR: ENSS 151950Z 16012KT 9999 SCT011 BKN025 02/M00 Q1003 RMK WIND 500FT 16013KT

Hora: 05:47 (04:47 UTC)


TAF: manca

Observacions i pronòstics meteorològics de més de 4000 aeroports (METAR i TAF).

Les estacions disponibles són els punts grocs i vermells al mapa.

Posi el ratolí al punt desitjat per veure el nom de l'estació.

Feu clic per veure les observacions i els pronòstics meteorològics.

Per canviar el mapa: feu clic els botons verds amb una creu de color negre per apropar; al botó verd amb un guió per allunyar la imatge; o en les fletxes verdes per a mapes adjacents.


METAR-TAF: